Sunday, May 27, 2018, 1:56 PM EDT
Back to Local

KABE, Lehigh Valley International Airport

Location: Allentown, PA, United States Lat: 40.65
Local Time: 1:56 PM EDT (17:56 GMT) Lon: -75.45
Time Zone: US/Eastern Elev: 393 ft

Show me the last for .
Show Decoded

2018-05-27 12:51 METAR KABE 271651Z 09012KT 10SM OVC015 22/17 A3000 RMK AO2 SLP156 T02170167 =
2018-05-27 12:46 METAR KABE 271646Z 08011KT 10SM OVC015 22/17 A3000 RMK AO2 =
2018-05-27 11:51 METAR KABE 271551Z 08012KT 10SM OVC013 21/17 A3000 RMK AO2 RAE13 SLP157 P0000
                 T02110167 =
2018-05-27 10:51 METAR KABE 271451Z 09009KT 8SM -RA OVC013 20/17 A3000 RMK AO2 RAB45 SLP157 P0000
                 60000 T02000167 53009 =
2018-05-27 10:17 METAR KABE 271417Z 08009KT 10SM OVC014 21/16 A3000 RMK AO2 T02060161 =
2018-05-27 10:02 METAR KABE 271402Z 07009KT 10SM OVC015 21/16 A3000 RMK AO2 T02060161 =
2018-05-27 09:51 METAR KABE 271351Z 09007KT 10SM OVC014 21/16 A2999 RMK AO2 SLP154 T02060161 =
2018-05-27 08:51 METAR KABE 271251Z 09009KT 10SM OVC014 21/17 A2998 RMK AO2 SLP149 T02110167 =
2018-05-27 08:49 METAR KABE 271249Z 09008KT 10SM OVC014 21/17 A2998 RMK AO2 =
2018-05-27 08:38 METAR KABE 271238Z 08012KT 10SM OVC015 21/17 A2997 =
2018-05-27 07:51 METAR KABE 271151Z 07014KT 10SM OVC011 21/17 A2996 RMK AO2 SLP141 60000
                 T02110172 10239 20211 53029 =
2018-05-27 07:09 METAR KABE 271109Z 08014G22KT 10SM BKN014 OVC021 22/18 A2994 RMK AO2 LTG DSNT S
                 T02220178 =
2018-05-27 06:59 METAR KABE 271059Z 09013KT 10SM BKN016 OVC043 22/17 A2993 RMK AO2 LTG DSNT SE
                 T02220172 =
2018-05-27 06:51 METAR KABE 271051Z 08012KT 10SM SCT020 BKN041 OVC090 22/17 A2993 RMK AO2 LTG
                 DSNT SE SLP131 T02220172 =
2018-05-27 05:51 METAR KABE 270951Z 06011KT 10SM SCT060 OVC090 22/18 A2989 RMK AO2 LTG DSNT SE
                 SLP117 T02220178 =
2018-05-27 04:51 METAR KABE 270851Z 06006KT 9SM FEW070 BKN110 22/19 A2987 RMK AO2 LTG DSNT E
                 RAE10 SLP111 P0000 60000 T02220189 58001 =
2018-05-27 03:51 METAR KABE 270751Z AUTO 06005KT 9SM -RA SCT110 23/19 A2988 RMK AO2 RAB30 SLP113
                 P0000 T02280189 =
2018-05-27 02:51 METAR KABE 270651Z 00000KT 10SM FEW090 SCT120 23/19 A2987 RMK AO2 LTG DSNT NE
                 SLP110 T02280189 =
2018-05-27 01:51 METAR KABE 270551Z 00000KT 10SM CLR 24/19 A2987 RMK AO2 LTG DSNT E SLP112
                 T02390189 10289 20233 50002 =
2018-05-27 00:51 METAR KABE 270451Z 01003KT 10SM CLR 23/19 A2987 RMK AO2 SLP112 T02330194
                 403220178 =
2018-05-26 23:51 METAR KABE 270351Z 24004KT 10SM CLR 25/20 A2987 RMK AO2 SLP112 T02500200 =
2018-05-26 22:51 METAR KABE 270251Z 22004KT 10SM FEW070 26/20 A2987 RMK AO2 SLP109 T02560200
                 53013 =
2018-05-26 21:51 METAR KABE 270151Z 19006KT 10SM FEW070 28/18 A2986 RMK AO2 SLP106 T02780178 =
2018-05-26 20:51 METAR KABE 270051Z 00000KT 10SM CLR 27/16 A2983 RMK AO2 SLP099 T02670156 =
2018-05-26 19:51 METAR KABE 262351Z 00000KT 10SM CLR 28/16 A2983 RMK AO2 SLP096 T02830156 10322
                 20283 53008 =
2018-05-26 18:51 METAR KABE 262251Z 35005KT 10SM FEW075 29/16 A2980 RMK AO2 SLP088 T02940156 =
2018-05-26 17:51 METAR KABE 262151Z 30004KT 10SM CLR 31/16 A2980 RMK AO2 SLP089 T03110156 =
2018-05-26 16:51 METAR KABE 262051Z 29005KT 10SM CLR 32/15 A2980 RMK AO2 SLP088 T03170150 55004 =
2018-05-26 15:51 METAR KABE 261951Z 31009KT 10SM SCT050 32/16 A2979 RMK AO2 SLP085 T03170156 =
2018-05-26 14:51 METAR KABE 261851Z 10SM CLR 32/17 A2981 RMK AO2 SLP089 T03170172 =

Support USWX by starting your Amazon purchase here.